createdAt,value
2023-03-26T00:01:10.989Z,112.42
2023-03-26T00:05:11.129Z,116.24
2023-03-26T00:09:11.194Z,119.68
2023-03-26T00:13:11.325Z,138.39
2023-03-26T00:17:11.414Z,138.78
2023-03-26T00:21:11.492Z,164.71
2023-03-26T00:25:11.613Z,159.77
2023-03-26T00:29:11.747Z,145.89
2023-03-26T00:33:11.932Z,136.54
2023-03-26T00:37:11.959Z,140.29
2023-03-26T00:41:12.013Z,147.31
2023-03-26T00:45:12.089Z,146.00
2023-03-26T00:49:12.197Z,146.49
2023-03-26T00:53:12.301Z,154.47
2023-03-26T00:57:14.910Z,171.80
2023-03-26T01:01:13.538Z,139.45
2023-03-26T01:05:12.494Z,143.19
2023-03-26T01:09:12.339Z,129.84
2023-03-26T01:13:12.329Z,129.66
2023-03-26T01:17:12.474Z,129.97
2023-03-26T01:21:12.634Z,133.60
2023-03-26T01:25:12.737Z,135.31
2023-03-26T01:29:12.901Z,139.12
2023-03-26T01:33:13.082Z,132.03
2023-03-26T01:37:13.153Z,130.65
2023-03-26T01:41:13.238Z,135.59
2023-03-26T01:45:13.317Z,129.33
2023-03-26T01:49:13.823Z,132.48
2023-03-26T01:53:13.576Z,141.67
2023-03-26T01:57:13.699Z,145.23
2023-03-26T02:01:13.872Z,137.55
2023-03-26T02:05:13.998Z,135.08
2023-03-26T02:09:14.121Z,119.91
2023-03-26T02:13:14.247Z,128.23
2023-03-26T02:17:14.367Z,124.42
2023-03-26T02:21:14.497Z,153.54
2023-03-26T02:25:14.593Z,154.72
2023-03-26T02:29:14.671Z,169.07
2023-03-26T02:33:14.771Z,180.24
2023-03-26T02:37:14.867Z,178.41
2023-03-26T02:41:14.964Z,161.15
2023-03-26T02:45:15.760Z,166.79
2023-03-26T02:49:15.175Z,171.20
2023-03-26T02:53:15.243Z,186.32
2023-03-26T02:57:15.445Z,284.75
2023-03-26T03:01:15.626Z,272.30
2023-03-26T03:05:15.721Z,215.02
2023-03-26T03:09:15.903Z,197.21
2023-03-26T03:13:15.994Z,198.20
2023-03-26T03:17:16.148Z,186.11
2023-03-26T03:21:16.280Z,172.67
2023-03-26T03:25:16.428Z,171.33
2023-03-26T03:29:16.563Z,149.06
2023-03-26T03:33:16.688Z,173.70
2023-03-26T03:37:16.806Z,183.55
2023-03-26T03:41:17.014Z,249.49
2023-03-26T03:45:17.092Z,251.47
2023-03-26T03:49:17.173Z,228.80
2023-03-26T03:53:17.304Z,217.92
2023-03-26T03:57:17.454Z,196.74
2023-03-26T04:01:17.568Z,186.47
2023-03-26T04:05:17.653Z,202.10
2023-03-26T04:09:17.824Z,223.59
2023-03-26T04:13:17.925Z,238.84
2023-03-26T04:17:18.031Z,233.79
2023-03-26T04:21:18.178Z,236.06
2023-03-26T04:25:18.269Z,230.08
2023-03-26T04:29:18.424Z,212.92
2023-03-26T04:33:18.576Z,240.67
2023-03-26T04:37:18.689Z,240.73
2023-03-26T04:41:18.774Z,236.78
2023-03-26T04:45:18.895Z,243.33
2023-03-26T04:49:18.997Z,236.16
2023-03-26T04:53:19.102Z,240.24
2023-03-26T04:57:19.244Z,241.17
2023-03-26T05:01:19.383Z,264.46
2023-03-26T05:05:19.494Z,247.96
2023-03-26T05:09:19.627Z,236.15
2023-03-26T05:13:19.786Z,259.81
2023-03-26T05:17:19.870Z,267.20
2023-03-26T05:21:19.984Z,275.45
2023-03-26T05:25:20.095Z,275.75
2023-03-26T05:29:20.196Z,266.65
2023-03-26T05:33:20.437Z,239.01
2023-03-26T05:37:20.489Z,213.85
2023-03-26T05:41:20.655Z,261.41
2023-03-26T05:45:21.027Z,263.62
2023-03-26T05:49:20.856Z,252.33
2023-03-26T05:53:20.921Z,241.00
2023-03-26T05:57:21.078Z,244.59
2023-03-26T06:01:21.233Z,233.39
2023-03-26T06:05:21.328Z,228.83
2023-03-26T06:09:21.421Z,216.66
2023-03-26T06:13:21.428Z,209.28
2023-03-26T06:17:21.668Z,198.43
2023-03-26T06:21:21.656Z,201.88
2023-03-26T06:25:21.730Z,220.19
2023-03-26T06:29:21.838Z,217.81
2023-03-26T06:33:24.435Z,227.17
2023-03-26T06:37:21.939Z,227.98
2023-03-26T06:41:21.856Z,232.94
2023-03-26T06:45:21.865Z,239.38
2023-03-26T06:49:21.881Z,238.54
2023-03-26T06:53:21.749Z,238.10
2023-03-26T06:57:21.702Z,220.84
2023-03-26T07:01:21.781Z,215.40
2023-03-26T07:05:21.662Z,222.31
2023-03-26T07:09:21.623Z,220.37
2023-03-26T07:13:21.950Z,219.86
2023-03-26T07:17:21.573Z,212.77
2023-03-26T07:21:21.557Z,208.02
2023-03-26T07:25:21.481Z,191.02
2023-03-26T07:29:21.439Z,169.58
2023-03-26T07:33:21.394Z,152.32
2023-03-26T07:37:21.365Z,162.09
2023-03-26T07:41:21.308Z,167.80
2023-03-26T07:45:21.405Z,150.07
2023-03-26T07:49:21.514Z,155.08
2023-03-26T07:53:21.619Z,147.52
2023-03-26T07:57:21.680Z,143.29
2023-03-26T08:01:21.774Z,124.74
2023-03-26T08:05:21.945Z,125.05
2023-03-26T08:09:22.041Z,128.35
2023-03-26T08:13:22.127Z,133.41
2023-03-26T08:17:22.272Z,119.42
2023-03-26T08:21:22.327Z,112.02
2023-03-26T08:25:22.478Z,120.32
2023-03-26T08:29:22.614Z,114.18
2023-03-26T08:33:22.753Z,125.15
2023-03-26T08:37:22.848Z,119.36
2023-03-26T08:41:22.911Z,125.08
2023-03-26T08:45:23.027Z,128.52
2023-03-26T08:49:25.269Z,121.47
2023-03-26T08:53:23.133Z,107.55
2023-03-26T08:57:23.052Z,130.48
2023-03-26T09:01:23.145Z,114.52
2023-03-26T09:05:23.014Z,121.57
2023-03-26T09:09:22.984Z,119.88
2023-03-26T09:13:22.950Z,136.43
2023-03-26T09:17:23.049Z,136.70
2023-03-26T09:21:22.848Z,137.99
2023-03-26T09:25:22.796Z,106.22
2023-03-26T09:29:22.772Z,104.94
2023-03-26T09:33:22.755Z,98.78
2023-03-26T09:37:22.678Z,100.86
2023-03-26T09:41:22.669Z,89.73
2023-03-26T09:45:22.641Z,96.24
2023-03-26T09:49:22.585Z,95.08
2023-03-26T09:53:22.568Z,103.09
2023-03-26T09:57:22.776Z,100.51
2023-03-26T10:01:22.860Z,104.67
2023-03-26T10:05:22.917Z,88.00
2023-03-26T10:09:23.053Z,95.41
2023-03-26T10:13:23.117Z,119.02
2023-03-26T10:17:23.405Z,105.29
2023-03-26T10:21:25.645Z,98.53
2023-03-26T10:25:23.274Z,93.83
2023-03-26T10:29:23.308Z,92.31
2023-03-26T10:33:25.099Z,92.44
2023-03-26T10:37:23.148Z,106.17
2023-03-26T10:41:23.120Z,102.18
2023-03-26T10:45:23.090Z,99.70
2023-03-26T10:49:23.092Z,101.45
2023-03-26T10:53:23.167Z,102.69
2023-03-26T10:57:23.263Z,99.17
2023-03-26T11:01:23.416Z,93.95
2023-03-26T11:05:23.478Z,95.94
2023-03-26T11:09:23.603Z,108.73
2023-03-26T11:13:23.751Z,106.38
2023-03-26T11:17:40.181Z,98.61
2023-03-26T11:21:24.798Z,88.32
2023-03-26T11:25:23.708Z,86.16
2023-03-26T11:29:32.414Z,93.87
2023-03-26T11:33:24.658Z,85.78
2023-03-26T11:37:23.608Z,104.90
2023-03-26T11:41:23.640Z,98.20
2023-03-26T11:45:23.835Z,88.39
2023-03-26T11:49:23.887Z,86.47
2023-03-26T11:53:24.003Z,101.86
2023-03-26T11:57:24.145Z,102.03
2023-03-26T12:01:24.301Z,103.96
2023-03-26T12:05:24.408Z,114.25
2023-03-26T12:09:24.470Z,118.50
2023-03-26T12:13:24.634Z,101.48
2023-03-26T12:17:31.502Z,96.30
2023-03-26T12:21:25.711Z,96.47
2023-03-26T12:25:24.761Z,95.30
2023-03-26T12:29:24.673Z,106.26
2023-03-26T12:33:24.738Z,130.39
2023-03-26T12:37:24.783Z,144.83
2023-03-26T12:44:42.801Z,138.07
2023-03-26T12:45:25.905Z,138.56
2023-03-26T12:49:24.852Z,128.67
2023-03-26T12:53:24.755Z,101.72
2023-03-26T12:57:24.895Z,69.20
2023-03-26T13:01:24.996Z,63.79
2023-03-26T13:05:25.064Z,56.06
2023-03-26T13:09:25.200Z,69.50
2023-03-26T13:13:25.316Z,81.01
2023-03-26T13:17:25.462Z,90.00
2023-03-26T13:21:25.569Z,96.50
2023-03-26T13:25:25.725Z,105.66
2023-03-26T13:29:25.850Z,105.00
2023-03-26T13:33:25.953Z,100.16
2023-03-26T13:37:26.038Z,117.02
2023-03-26T13:41:26.208Z,106.52
2023-03-26T13:45:26.373Z,134.79
2023-03-26T13:49:26.431Z,120.32
2023-03-26T13:53:26.578Z,94.24
2023-03-26T13:57:26.667Z,91.18
2023-03-26T14:01:26.809Z,105.61
2023-03-26T14:05:26.832Z,100.54
2023-03-26T14:09:26.994Z,120.18
2023-03-26T14:13:27.168Z,119.23
2023-03-26T14:17:27.399Z,131.72
2023-03-26T14:21:27.432Z,142.63
2023-03-26T14:25:27.597Z,143.47
2023-03-26T14:29:27.697Z,143.01
2023-03-26T14:33:28.080Z,112.86
2023-03-26T14:37:28.330Z,130.68
2023-03-26T14:41:27.883Z,133.70
2023-03-26T14:45:27.975Z,184.58
2023-03-26T14:49:28.176Z,184.37
2023-03-26T14:53:28.201Z,215.96
2023-03-26T14:57:28.349Z,207.97
2023-03-26T15:01:28.573Z,233.12
2023-03-26T15:05:28.648Z,249.27
2023-03-26T15:09:28.764Z,220.00
2023-03-26T15:13:28.875Z,227.21
2023-03-26T15:17:29.011Z,223.41
2023-03-26T15:21:29.110Z,235.74
2023-03-26T15:25:29.213Z,242.34
2023-03-26T15:29:29.325Z,221.08
2023-03-26T15:33:29.441Z,256.29
2023-03-26T15:37:29.520Z,264.63
2023-03-26T15:41:29.654Z,242.51
2023-03-26T15:45:29.736Z,244.09
2023-03-26T15:49:29.937Z,248.93
2023-03-26T15:53:30.091Z,248.11
2023-03-26T15:57:30.321Z,227.65
2023-03-26T16:01:32.514Z,217.18
2023-03-26T16:05:30.526Z,201.88
2023-03-26T16:09:30.612Z,211.51
2023-03-26T16:13:30.797Z,197.39
2023-03-26T16:17:30.932Z,193.78
2023-03-26T16:21:32.138Z,198.45
2023-03-26T16:25:31.055Z,187.11
2023-03-26T16:29:31.146Z,186.90
2023-03-26T16:33:31.189Z,218.49
2023-03-26T16:37:31.346Z,210.80
2023-03-26T16:41:31.412Z,185.21
2023-03-26T16:45:31.617Z,178.91
2023-03-26T16:49:31.570Z,180.46
2023-03-26T16:53:31.647Z,201.44
2023-03-26T16:57:31.783Z,203.29
2023-03-26T17:01:31.980Z,208.10
2023-03-26T17:05:32.030Z,208.66
2023-03-26T17:09:32.134Z,223.96
2023-03-26T17:13:32.364Z,226.39
2023-03-26T17:17:32.627Z,221.50
2023-03-26T17:21:45.724Z,234.75
2023-03-26T17:25:33.576Z,240.58
2023-03-26T17:29:32.540Z,241.11
2023-03-26T17:33:32.492Z,250.58
2023-03-26T17:37:32.578Z,248.54
2023-03-26T17:41:32.633Z,249.85
2023-03-26T17:45:32.775Z,244.51
2023-03-26T17:49:32.862Z,250.58
2023-03-26T17:53:33.041Z,242.13
2023-03-26T17:57:33.150Z,227.58
2023-03-26T18:01:33.186Z,218.91
2023-03-26T18:05:33.209Z,217.51
2023-03-26T18:09:33.297Z,223.05
2023-03-26T18:13:33.421Z,216.65
2023-03-26T18:17:33.512Z,209.55
2023-03-26T18:21:33.574Z,211.10
2023-03-26T18:25:33.709Z,210.69
2023-03-26T18:29:33.841Z,215.88
2023-03-26T18:33:34.013Z,218.99
2023-03-26T18:37:34.113Z,204.07
2023-03-26T18:41:34.204Z,187.63
2023-03-26T18:45:34.311Z,162.12
2023-03-26T18:49:34.386Z,141.82
2023-03-26T18:53:34.544Z,150.87
2023-03-26T18:57:34.687Z,176.78
2023-03-26T19:01:34.784Z,175.50
2023-03-26T19:05:34.866Z,171.79
2023-03-26T19:09:34.945Z,181.55
2023-03-26T19:13:35.022Z,193.72
2023-03-26T19:17:35.298Z,206.63
2023-03-26T19:21:35.240Z,194.99
2023-03-26T19:25:35.366Z,195.78
2023-03-26T19:29:35.407Z,188.12
2023-03-26T19:33:35.564Z,202.91
2023-03-26T19:37:35.722Z,202.17
2023-03-26T19:41:35.946Z,199.72
2023-03-26T19:45:36.044Z,208.70
2023-03-26T19:49:36.098Z,206.03
2023-03-26T19:53:36.264Z,193.62
2023-03-26T19:57:36.364Z,178.81
2023-03-26T20:01:36.514Z,166.74
2023-03-26T20:05:36.618Z,167.20
2023-03-26T20:09:36.648Z,178.99
2023-03-26T20:13:36.789Z,193.70
2023-03-26T20:17:36.917Z,190.77
2023-03-26T20:21:37.023Z,195.65
2023-03-26T20:25:37.147Z,208.06
2023-03-26T20:29:37.245Z,223.75
2023-03-26T20:33:37.366Z,221.43
2023-03-26T20:37:37.412Z,226.35
2023-03-26T20:41:37.466Z,233.56
2023-03-26T20:45:37.619Z,222.31
2023-03-26T20:49:37.804Z,203.46
2023-03-26T20:53:37.847Z,193.37
2023-03-26T20:57:37.960Z,188.70
2023-03-26T21:01:38.335Z,169.35
2023-03-26T21:05:38.209Z,164.03
2023-03-26T21:09:38.342Z,159.41
2023-03-26T21:13:38.461Z,121.83
2023-03-26T21:17:38.635Z,118.35
2023-03-26T21:21:38.707Z,131.51
2023-03-26T21:25:38.849Z,126.57
2023-03-26T21:29:39.023Z,90.20
2023-03-26T21:33:39.169Z,103.51
2023-03-26T21:37:39.372Z,86.93
2023-03-26T21:41:39.498Z,80.39
2023-03-26T21:45:39.656Z,73.21
2023-03-26T21:49:39.730Z,40.41
2023-03-26T21:53:39.785Z,40.66
2023-03-26T21:57:39.925Z,19.49
2023-03-26T22:01:40.097Z,21.38
2023-03-26T22:05:40.211Z,31.12
2023-03-26T22:09:40.324Z,26.00
2023-03-26T22:13:40.389Z,39.83
2023-03-26T22:17:40.493Z,52.75
2023-03-26T22:21:40.673Z,45.09
2023-03-26T22:25:40.777Z,78.48
2023-03-26T22:29:40.888Z,108.89
2023-03-26T22:33:41.006Z,103.16
2023-03-26T22:37:41.084Z,101.47
2023-03-26T22:41:41.262Z,108.16
2023-03-26T22:45:41.307Z,107.70
2023-03-26T22:49:41.378Z,81.38
2023-03-26T22:53:41.515Z,80.04
2023-03-26T22:57:41.648Z,76.84
2023-03-26T23:01:41.810Z,27.90
2023-03-26T23:05:41.875Z,24.10
2023-03-26T23:09:42.061Z,31.42
2023-03-26T23:13:42.114Z,14.06
2023-03-26T23:17:42.229Z,38.57
2023-03-26T23:21:42.375Z,22.25
2023-03-26T23:25:42.526Z,18.36
2023-03-26T23:29:42.624Z,5.51
2023-03-26T23:33:42.718Z,32.08
2023-03-26T23:37:42.811Z,63.60
2023-03-26T23:41:43.009Z,61.07
2023-03-26T23:45:43.126Z,69.48
2023-03-26T23:49:43.150Z,54.02
2023-03-26T23:53:43.323Z,82.82
2023-03-26T23:57:43.373Z,97.91
